sensor_id;sensor_type;location;lat;lon;timestamp;pressure;altitude;pressure_sealevel;temperature;humidity
68456;BME280;55437;55.046;38.838;2023-05-06T00:00:03;100466.16;;;3.36;58.37
68456;BME280;55437;55.046;38.838;2023-05-06T00:02:37;100467.81;;;3.32;58.23
68456;BME280;55437;55.046;38.838;2023-05-06T00:05:03;100469.53;;;3.35;58.16
68456;BME280;55437;55.046;38.838;2023-05-06T00:07:30;100471.22;;;3.33;57.78
68456;BME280;55437;55.046;38.838;2023-05-06T00:09:55;100471.19;;;3.31;57.92
68456;BME280;55437;55.046;38.838;2023-05-06T00:12:21;100477.97;;;3.31;57.56
68456;BME280;55437;55.046;38.838;2023-05-06T00:14:47;100473.72;;;3.31;57.23
68456;BME280;55437;55.046;38.838;2023-05-06T00:17:13;100475.41;;;3.31;57.21
68456;BME280;55437;55.046;38.838;2023-05-06T00:19:38;100475.41;;;3.29;57.48
68456;BME280;55437;55.046;38.838;2023-05-06T00:22:04;100475.38;;;3.26;57.44
68456;BME280;55437;55.046;38.838;2023-05-06T00:24:30;100478.75;;;3.22;57.28
68456;BME280;55437;55.046;38.838;2023-05-06T00:26:56;100475.34;;;3.20;57.28
68456;BME280;55437;55.046;38.838;2023-05-06T00:29:22;100472.81;;;3.20;57.39
68456;BME280;55437;55.046;38.838;2023-05-06T00:31:48;100471.09;;;3.19;57.31
68456;BME280;55437;55.046;38.838;2023-05-06T00:34:14;100466.03;;;3.20;57.15
68456;BME280;55437;55.046;38.838;2023-05-06T00:36:40;100463.44;;;3.16;57.64
68456;BME280;55437;55.046;38.838;2023-05-06T00:39:08;100474.47;;;3.18;57.49
68456;BME280;55437;55.046;38.838;2023-05-06T00:41:34;100461.78;;;3.16;57.36
68456;BME280;55437;55.046;38.838;2023-05-06T00:44:00;100463.44;;;3.16;57.36
68456;BME280;55437;55.046;38.838;2023-05-06T00:46:26;100460.91;;;3.11;56.84
68456;BME280;55437;55.046;38.838;2023-05-06T00:48:52;100473.59;;;3.13;56.64
68456;BME280;55437;55.046;38.838;2023-05-06T00:51:19;100474.44;;;3.12;56.48
68456;BME280;55437;55.046;38.838;2023-05-06T00:53:45;100472.66;;;3.03;56.49
68456;BME280;55437;55.046;38.838;2023-05-06T00:56:14;100477.75;;;3.02;56.41
68456;BME280;55437;55.046;38.838;2023-05-06T00:58:43;100476.88;;;3.00;56.33
68456;BME280;55437;55.046;38.838;2023-05-06T01:01:09;100478.56;;;3.02;56.49
68456;BME280;55437;55.046;38.838;2023-05-06T01:03:35;100480.25;;;3.00;56.52
68456;BME280;55437;55.046;38.838;2023-05-06T01:08:34;100483.63;;;2.98;56.57
68456;BME280;55437;55.046;38.838;2023-05-06T01:11:16;100481.88;;;2.95;56.26
68456;BME280;55437;55.046;38.838;2023-05-06T01:13:51;100484.41;;;2.94;56.27
68456;BME280;55437;55.046;38.838;2023-05-06T01:16:19;100484.38;;;2.89;56.54
68456;BME280;55437;55.046;38.838;2023-05-06T01:18:50;100485.13;;;2.80;56.70
68456;BME280;55437;55.046;38.838;2023-05-06T01:21:17;100485.94;;;2.78;56.87
68456;BME280;55437;55.046;38.838;2023-05-06T01:23:54;100486.78;;;2.75;56.69
68456;BME280;55437;55.046;38.838;2023-05-06T01:26:23;100486.78;;;2.78;56.55
68456;BME280;55437;55.046;38.838;2023-05-06T01:28:49;100488.50;;;2.79;56.55
68456;BME280;55437;55.046;38.838;2023-05-06T01:31:44;100488.53;;;2.82;56.69
68456;BME280;55437;55.046;38.838;2023-05-06T01:34:21;100497.00;;;2.83;56.70
68456;BME280;55437;55.046;38.838;2023-05-06T01:39:45;100491.91;;;2.81;56.56
68456;BME280;55437;55.046;38.838;2023-05-06T01:42:12;100492.75;;;2.82;56.62
68456;BME280;55437;55.046;38.838;2023-05-06T01:44:41;100496.19;;;2.85;56.65
68456;BME280;55437;55.046;38.838;2023-05-06T01:47:09;100497.28;;;3.12;56.02
68456;BME280;55437;55.046;38.838;2023-05-06T01:49:36;100496.72;;;3.48;55.75
68456;BME280;55437;55.046;38.838;2023-05-06T01:52:02;100502.03;;;3.84;54.84
68456;BME280;55437;55.046;38.838;2023-05-06T01:54:28;100495.44;;;4.21;54.18
68456;BME280;55437;55.046;38.838;2023-05-06T01:56:54;100500.66;;;4.64;53.35
68456;BME280;55437;55.046;38.838;2023-05-06T01:59:20;100499.06;;;5.02;52.91
68456;BME280;55437;55.046;38.838;2023-05-06T02:01:45;100508.38;;;5.46;51.76
68456;BME280;55437;55.046;38.838;2023-05-06T02:04:11;100499.84;;;5.80;50.90
68456;BME280;55437;55.046;38.838;2023-05-06T02:06:38;100504.91;;;6.11;49.83
68456;BME280;55437;55.046;38.838;2023-05-06T02:09:04;100503.06;;;6.51;49.36
68456;BME280;55437;55.046;38.838;2023-05-06T02:11:34;100507.03;;;6.98;48.39
68456;BME280;55437;55.046;38.838;2023-05-06T02:14:03;100507.53;;;7.45;47.63
68456;BME280;55437;55.046;38.838;2023-05-06T02:16:31;100509.66;;;7.88;47.09
68456;BME280;55437;55.046;38.838;2023-05-06T02:18:57;100503.41;;;8.16;46.01
68456;BME280;55437;55.046;38.838;2023-05-06T02:21:23;100507.28;;;8.49;45.14
68456;BME280;55437;55.046;38.838;2023-05-06T02:23:49;100501.94;;;8.69;44.39
68456;BME280;55437;55.046;38.838;2023-05-06T02:26:15;100514.63;;;8.77;43.98
68456;BME280;55437;55.046;38.838;2023-05-06T02:28:41;100526.69;;;8.69;43.72
68456;BME280;55437;55.046;38.838;2023-05-06T02:31:07;100512.81;;;8.82;43.51
68456;BME280;55437;55.046;38.838;2023-05-06T02:33:32;100522.44;;;9.24;42.74
68456;BME280;55437;55.046;38.838;2023-05-06T02:35:58;100529.34;;;9.71;42.43
68456;BME280;55437;55.046;38.838;2023-05-06T02:38:24;100526.03;;;10.13;41.77
68456;BME280;55437;55.046;38.838;2023-05-06T02:40:50;100523.44;;;10.59;40.74
68456;BME280;55437;55.046;38.838;2023-05-06T02:43:16;100527.72;;;10.98;39.97
68456;BME280;55437;55.046;38.838;2023-05-06T02:45:41;100529.63;;;11.26;39.16
68456;BME280;55437;55.046;38.838;2023-05-06T02:48:07;100524.00;;;11.47;38.86
68456;BME280;55437;55.046;38.838;2023-05-06T02:50:35;100537.84;;;11.75;38.66
68456;BME280;55437;55.046;38.838;2023-05-06T02:53:01;100542.63;;;11.55;38.52
68456;BME280;55437;55.046;38.838;2023-05-06T02:55:27;100542.09;;;11.78;38.04
68456;BME280;55437;55.046;38.838;2023-05-06T02:57:53;100543.72;;;11.82;37.74
68456;BME280;55437;55.046;38.838;2023-05-06T03:00:19;100551.22;;;11.89;37.78
68456;BME280;55437;55.046;38.838;2023-05-06T03:02:45;100537.50;;;12.20;37.41
68456;BME280;55437;55.046;38.838;2023-05-06T03:05:11;100543.00;;;12.08;36.85
68456;BME280;55437;55.046;38.838;2023-05-06T03:07:38;100552.56;;;12.04;37.02
68456;BME280;55437;55.046;38.838;2023-05-06T03:10:04;100544.03;;;12.02;36.88
68456;BME280;55437;55.046;38.838;2023-05-06T03:12:34;100546.63;;;11.67;36.90
68456;BME280;55437;55.046;38.838;2023-05-06T03:15:00;100550.34;;;11.19;37.97
68456;BME280;55437;55.046;38.838;2023-05-06T03:17:26;100543.19;;;10.55;38.44
68456;BME280;55437;55.046;38.838;2023-05-06T03:19:52;100557.28;;;9.88;39.72
68456;BME280;55437;55.046;38.838;2023-05-06T03:22:19;100549.78;;;9.25;40.40
68456;BME280;55437;55.046;38.838;2023-05-06T03:24:46;100546.22;;;8.76;41.50
68456;BME280;55437;55.046;38.838;2023-05-06T03:27:11;100558.84;;;8.16;42.32
68456;BME280;55437;55.046;38.838;2023-05-06T03:29:38;100560.16;;;7.65;43.57
68456;BME280;55437;55.046;38.838;2023-05-06T03:32:06;100567.16;;;7.46;44.18
68456;BME280;55437;55.046;38.838;2023-05-06T03:34:38;100548.53;;;7.26;44.58
68456;BME280;55437;55.046;38.838;2023-05-06T03:37:05;100557.13;;;7.17;44.76
68456;BME280;55437;55.046;38.838;2023-05-06T03:39:32;100559.66;;;7.18;45.10
68456;BME280;55437;55.046;38.838;2023-05-06T03:41:59;100559.75;;;7.03;45.45
68456;BME280;55437;55.046;38.838;2023-05-06T03:44:25;100565.78;;;6.88;45.83
68456;BME280;55437;55.046;38.838;2023-05-06T03:46:52;100565.91;;;6.72;46.28
68456;BME280;55437;55.046;38.838;2023-05-06T03:49:18;100566.75;;;6.68;46.47
68456;BME280;55437;55.046;38.838;2023-05-06T03:51:46;100575.25;;;6.68;46.59
68456;BME280;55437;55.046;38.838;2023-05-06T03:54:12;100580.34;;;6.71;46.78
68456;BME280;55437;55.046;38.838;2023-05-06T03:56:38;100580.41;;;6.61;47.32
68456;BME280;55437;55.046;38.838;2023-05-06T03:59:04;100571.91;;;6.57;47.49
68456;BME280;55437;55.046;38.838;2023-05-06T04:01:30;100578.63;;;6.76;47.43
68456;BME280;55437;55.046;38.838;2023-05-06T04:03:56;100570.81;;;7.08;46.88
68456;BME280;55437;55.046;38.838;2023-05-06T04:06:23;100580.94;;;7.20;46.82
68456;BME280;55437;55.046;38.838;2023-05-06T04:08:50;100576.69;;;7.18;46.99
68456;BME280;55437;55.046;38.838;2023-05-06T04:11:17;100583.50;;;7.20;46.83
68456;BME280;55437;55.046;38.838;2023-05-06T04:13:45;100585.03;;;7.46;46.77
68456;BME280;55437;55.046;38.838;2023-05-06T04:16:14;100584.94;;;7.58;46.33
68456;BME280;55437;55.046;38.838;2023-05-06T04:18:42;100577.19;;;7.66;46.74
68456;BME280;55437;55.046;38.838;2023-05-06T04:21:12;100580.53;;;7.75;46.96
68456;BME280;55437;55.046;38.838;2023-05-06T04:23:40;100580.78;;;7.42;47.01
68456;BME280;55437;55.046;38.838;2023-05-06T04:26:09;100580.13;;;7.14;47.52
68456;BME280;55437;55.046;38.838;2023-05-06T04:28:39;100575.94;;;7.02;47.77
68456;BME280;55437;55.046;38.838;2023-05-06T04:31:06;100575.00;;;7.20;47.41
68456;BME280;55437;55.046;38.838;2023-05-06T04:33:44;100574.06;;;7.33;47.45
68456;BME280;55437;55.046;38.838;2023-05-06T04:36:14;100577.41;;;7.40;47.43
68456;BME280;55437;55.046;38.838;2023-05-06T04:38:48;100578.59;;;7.97;46.66
68456;BME280;55437;55.046;38.838;2023-05-06T04:41:14;100587.50;;;8.47;46.01
68456;BME280;55437;55.046;38.838;2023-05-06T04:43:40;100572.50;;;8.88;45.15
68456;BME280;55437;55.046;38.838;2023-05-06T04:46:13;100572.00;;;9.23;44.27
68456;BME280;55437;55.046;38.838;2023-05-06T04:48:41;100579.97;;;10.11;43.20
68456;BME280;55437;55.046;38.838;2023-05-06T04:51:09;100574.69;;;10.63;42.03
68456;BME280;55437;55.046;38.838;2023-05-06T04:53:36;100584.41;;;11.28;41.13
68456;BME280;55437;55.046;38.838;2023-05-06T04:56:02;100580.69;;;11.78;40.36
68456;BME280;55437;55.046;38.838;2023-05-06T04:58:29;100590.03;;;12.14;39.92
68456;BME280;55437;55.046;38.838;2023-05-06T05:00:56;100586.91;;;12.34;38.99
68456;BME280;55437;55.046;38.838;2023-05-06T05:03:22;100590.69;;;12.21;38.69
68456;BME280;55437;55.046;38.838;2023-05-06T05:05:48;100589.44;;;12.36;38.59
68456;BME280;55437;55.046;38.838;2023-05-06T05:08:17;100587.88;;;12.32;38.01
68456;BME280;55437;55.046;38.838;2023-05-06T05:10:43;100587.41;;;12.16;38.31
68456;BME280;55437;55.046;38.838;2023-05-06T05:13:13;100590.84;;;12.16;38.04
68456;BME280;55437;55.046;38.838;2023-05-06T05:15:39;100582.81;;;12.27;37.65
68456;BME280;55437;55.046;38.838;2023-05-06T05:18:05;100580.78;;;12.07;37.67
68456;BME280;55437;55.046;38.838;2023-05-06T05:20:31;100591.88;;;12.09;37.37
68456;BME280;55437;55.046;38.838;2023-05-06T05:23:00;100586.94;;;12.33;36.73
68456;BME280;55437;55.046;38.838;2023-05-06T05:25:26;100591.03;;;13.00;36.25
68456;BME280;55437;55.046;38.838;2023-05-06T05:30:38;100583.25;;;13.31;35.49
68456;BME280;55437;55.046;38.838;2023-05-06T05:33:05;100584.84;;;13.61;35.12
68456;BME280;55437;55.046;38.838;2023-05-06T05:35:31;100580.84;;;14.04;34.75
68456;BME280;55437;55.046;38.838;2023-05-06T05:40:42;100588.91;;;14.20;34.68
68456;BME280;55437;55.046;38.838;2023-05-06T05:43:08;100597.69;;;13.89;34.41
68456;BME280;55437;55.046;38.838;2023-05-06T05:46:00;100586.16;;;13.20;34.64
68456;BME280;55437;55.046;38.838;2023-05-06T05:48:28;100593.09;;;12.89;34.61
68456;BME280;55437;55.046;38.838;2023-05-06T05:50:55;100591.53;;;13.93;33.79
68456;BME280;55437;55.046;38.838;2023-05-06T05:53:22;100587.53;;;15.04;32.62
68456;BME280;55437;55.046;38.838;2023-05-06T05:55:47;100600.69;;;15.85;31.55
68456;BME280;55437;55.046;38.838;2023-05-06T05:58:13;100600.06;;;15.59;31.05
68456;BME280;55437;55.046;38.838;2023-05-06T06:00:41;100598.28;;;15.61;31.06
68456;BME280;55437;55.046;38.838;2023-05-06T06:03:10;100591.19;;;16.06;30.36
68456;BME280;55437;55.046;38.838;2023-05-06T06:05:37;100602.50;;;15.83;30.62
68456;BME280;55437;55.046;38.838;2023-05-06T06:08:03;100594.31;;;14.85;31.59
68456;BME280;55437;55.046;38.838;2023-05-06T06:10:30;100596.56;;;15.38;31.14
68456;BME280;55437;55.046;38.838;2023-05-06T06:12:59;100607.63;;;15.85;30.32
68456;BME280;55437;55.046;38.838;2023-05-06T06:15:31;100613.00;;;16.41;30.04
68456;BME280;55437;55.046;38.838;2023-05-06T06:17:57;100603.34;;;16.65;29.17
68456;BME280;55437;55.046;38.838;2023-05-06T06:20:25;100613.16;;;16.57;28.92
68456;BME280;55437;55.046;38.838;2023-05-06T06:22:52;100616.03;;;16.31;29.00
68456;BME280;55437;55.046;38.838;2023-05-06T06:28:03;100611.13;;;16.84;28.74
68456;BME280;55437;55.046;38.838;2023-05-06T06:30:29;100612.41;;;17.49;28.35
68456;BME280;55437;55.046;38.838;2023-05-06T06:32:55;100605.59;;;16.52;28.59
68456;BME280;55437;55.046;38.838;2023-05-06T06:41:08;100612.44;;;13.59;30.48
68456;BME280;55437;55.046;38.838;2023-05-06T06:43:34;100621.78;;;14.15;30.03
68456;BME280;55437;55.046;38.838;2023-05-06T06:46:22;100613.63;;;14.75;29.64
68456;BME280;55437;55.046;38.838;2023-05-06T06:48:48;100621.81;;;15.76;28.63
68456;BME280;55437;55.046;38.838;2023-05-06T06:51:13;100627.38;;;16.48;28.21
68456;BME280;55437;55.046;38.838;2023-05-06T06:53:39;100620.66;;;16.83;27.43
68456;BME280;55437;55.046;38.838;2023-05-06T06:56:09;100620.56;;;17.04;27.07
68456;BME280;55437;55.046;38.838;2023-05-06T06:58:35;100627.06;;;17.14;26.60
68456;BME280;55437;55.046;38.838;2023-05-06T07:01:19;100621.03;;;17.49;26.06
68456;BME280;55437;55.046;38.838;2023-05-06T07:03:47;100634.94;;;16.92;26.59
68456;BME280;55437;55.046;38.838;2023-05-06T07:06:12;100645.09;;;15.76;27.37
68456;BME280;55437;55.046;38.838;2023-05-06T07:08:38;100644.44;;;16.13;27.16
68456;BME280;55437;55.046;38.838;2023-05-06T07:11:04;100636.22;;;16.65;26.76
68456;BME280;55437;55.046;38.838;2023-05-06T07:13:30;100646.31;;;17.08;26.17
68456;BME280;55437;55.046;38.838;2023-05-06T07:15:56;100636.81;;;17.45;25.71
68456;BME280;55437;55.046;38.838;2023-05-06T07:18:24;100642.03;;;17.07;25.63
68456;BME280;55437;55.046;38.838;2023-05-06T07:20:49;100632.44;;;15.47;26.87
68456;BME280;55437;55.046;38.838;2023-05-06T07:23:16;100640.81;;;15.54;26.92
68456;BME280;55437;55.046;38.838;2023-05-06T07:25:43;100644.25;;;15.76;27.09
68456;BME280;55437;55.046;38.838;2023-05-06T07:28:08;100648.25;;;16.45;26.25
68456;BME280;55437;55.046;38.838;2023-05-06T07:30:37;100639.72;;;17.20;25.53
68456;BME280;55437;55.046;38.838;2023-05-06T07:33:03;100629.56;;;16.97;25.45
68456;BME280;55437;55.046;38.838;2023-05-06T07:35:28;100648.59;;;15.32;26.59
68456;BME280;55437;55.046;38.838;2023-05-06T07:37:54;100654.00;;;14.29;27.50
68456;BME280;55437;55.046;38.838;2023-05-06T07:40:20;100646.38;;;13.47;28.52
68456;BME280;55437;55.046;38.838;2023-05-06T07:42:46;100646.88;;;13.01;29.06
68456;BME280;55437;55.046;38.838;2023-05-06T07:45:12;100645.47;;;12.91;29.17
68456;BME280;55437;55.046;38.838;2023-05-06T07:47:37;100647.19;;;13.49;28.79
68456;BME280;55437;55.046;38.838;2023-05-06T07:50:03;100654.22;;;13.70;28.29
68456;BME280;55437;55.046;38.838;2023-05-06T07:52:32;100649.97;;;14.72;27.50
68456;BME280;55437;55.046;38.838;2023-05-06T07:54:58;100655.13;;;14.72;27.79
68456;BME280;55437;55.046;38.838;2023-05-06T07:57:24;100660.88;;;14.80;28.11
68456;BME280;55437;55.046;38.838;2023-05-06T07:59:50;100656.72;;;15.44;28.11
68456;BME280;55437;55.046;38.838;2023-05-06T08:02:17;100648.81;;;15.47;27.55
68456;BME280;55437;55.046;38.838;2023-05-06T08:04:44;100656.41;;;15.52;27.00
68456;BME280;55437;55.046;38.838;2023-05-06T08:07:10;100659.75;;;15.77;26.71
68456;BME280;55437;55.046;38.838;2023-05-06T08:09:37;100658.31;;;15.47;26.88
68456;BME280;55437;55.046;38.838;2023-05-06T08:12:02;100656.69;;;14.76;27.21
68456;BME280;55437;55.046;38.838;2023-05-06T08:14:28;100669.31;;;14.85;27.42
68456;BME280;55437;55.046;38.838;2023-05-06T08:16:54;100671.84;;;14.62;28.19
68456;BME280;55437;55.046;38.838;2023-05-06T08:19:20;100663.72;;;13.42;29.21
68456;BME280;55437;55.046;38.838;2023-05-06T08:21:46;100669.00;;;13.39;28.92
68456;BME280;55437;55.046;38.838;2023-05-06T08:24:13;100658.13;;;14.10;28.77
68456;BME280;55437;55.046;38.838;2023-05-06T08:26:40;100675.97;;;14.67;28.11
68456;BME280;55437;55.046;38.838;2023-05-06T08:29:06;100674.63;;;15.27;27.42
68456;BME280;55437;55.046;38.838;2023-05-06T08:31:33;100672.88;;;15.28;27.12
68456;BME280;55437;55.046;38.838;2023-05-06T08:33:59;100662.97;;;14.46;27.75
68456;BME280;55437;55.046;38.838;2023-05-06T08:36:25;100667.44;;;13.61;28.48
68456;BME280;55437;55.046;38.838;2023-05-06T08:38:51;100679.88;;;12.88;29.71
68456;BME280;55437;55.046;38.838;2023-05-06T08:41:18;100681.81;;;12.49;30.34
68456;BME280;55437;55.046;38.838;2023-05-06T08:43:46;100675.44;;;12.62;29.75
68456;BME280;55437;55.046;38.838;2023-05-06T08:46:12;100672.00;;;12.93;29.86
68456;BME280;55437;55.046;38.838;2023-05-06T08:48:38;100667.38;;;13.35;29.48
68456;BME280;55437;55.046;38.838;2023-05-06T08:51:04;100680.38;;;13.60;29.45
68456;BME280;55437;55.046;38.838;2023-05-06T08:53:32;100689.03;;;13.29;30.13
68456;BME280;55437;55.046;38.838;2023-05-06T08:56:03;100692.75;;;12.90;30.25
68456;BME280;55437;55.046;38.838;2023-05-06T08:58:35;100689.16;;;12.63;30.63
68456;BME280;55437;55.046;38.838;2023-05-06T09:01:03;100690.03;;;12.63;31.05
68456;BME280;55437;55.046;38.838;2023-05-06T09:03:30;100685.63;;;12.67;31.16
68456;BME280;55437;55.046;38.838;2023-05-06T09:05:56;100698.75;;;12.58;31.07
68456;BME280;55437;55.046;38.838;2023-05-06T09:08:23;100692.22;;;12.77;30.86
68456;BME280;55437;55.046;38.838;2023-05-06T09:10:49;100699.28;;;12.69;30.96
68456;BME280;55437;55.046;38.838;2023-05-06T09:13:17;100694.97;;;12.39;30.75
68456;BME280;55437;55.046;38.838;2023-05-06T09:15:46;100693.88;;;11.78;31.23
68456;BME280;55437;55.046;38.838;2023-05-06T09:18:12;100708.34;;;11.43;31.52
68456;BME280;55437;55.046;38.838;2023-05-06T09:20:43;100697.53;;;11.28;32.22
68456;BME280;55437;55.046;38.838;2023-05-06T09:23:15;100702.19;;;11.50;31.12
68456;BME280;55437;55.046;38.838;2023-05-06T09:25:42;100697.81;;;11.94;30.92
68456;BME280;55437;55.046;38.838;2023-05-06T09:28:10;100700.44;;;11.91;30.50
68456;BME280;55437;55.046;38.838;2023-05-06T09:30:43;100703.75;;;11.58;31.34
68456;BME280;55437;55.046;38.838;2023-05-06T09:33:10;100707.13;;;11.21;32.01
68456;BME280;55437;55.046;38.838;2023-05-06T09:35:41;100720.28;;;11.06;32.21
68456;BME280;55437;55.046;38.838;2023-05-06T09:38:08;100713.88;;;10.82;32.40
68456;BME280;55437;55.046;38.838;2023-05-06T09:40:58;100714.09;;;10.71;32.96
68456;BME280;55437;55.046;38.838;2023-05-06T09:43:24;100707.31;;;10.67;33.00
68456;BME280;55437;55.046;38.838;2023-05-06T09:45:51;100725.19;;;10.73;32.68
68456;BME280;55437;55.046;38.838;2023-05-06T09:48:17;100714.69;;;10.86;33.04
68456;BME280;55437;55.046;38.838;2023-05-06T09:50:46;100720.56;;;10.91;32.63
68456;BME280;55437;55.046;38.838;2023-05-06T09:53:13;100716.28;;;10.90;33.04
68456;BME280;55437;55.046;38.838;2023-05-06T09:55:40;100728.81;;;10.62;33.41
68456;BME280;55437;55.046;38.838;2023-05-06T09:58:07;100719.13;;;10.76;33.15
68456;BME280;55437;55.046;38.838;2023-05-06T10:00:34;100711.06;;;10.96;32.90
68456;BME280;55437;55.046;38.838;2023-05-06T10:03:01;100730.16;;;10.82;33.23
68456;BME280;55437;55.046;38.838;2023-05-06T10:05:30;100728.09;;;11.00;32.41
68456;BME280;55437;55.046;38.838;2023-05-06T10:07:58;100724.19;;;11.24;31.98
68456;BME280;55437;55.046;38.838;2023-05-06T10:10:26;100731.56;;;10.99;31.85
68456;BME280;55437;55.046;38.838;2023-05-06T10:12:53;100722.09;;;10.99;31.83
68456;BME280;55437;55.046;38.838;2023-05-06T10:15:20;100713.34;;;11.09;31.57
68456;BME280;55437;55.046;38.838;2023-05-06T10:17:47;100717.44;;;11.18;31.82
68456;BME280;55437;55.046;38.838;2023-05-06T10:20:34;100727.22;;;10.99;32.14
68456;BME280;55437;55.046;38.838;2023-05-06T10:23:22;100724.38;;;10.71;32.79
68456;BME280;55437;55.046;38.838;2023-05-06T10:25:52;100729.78;;;10.55;33.01
68456;BME280;55437;55.046;38.838;2023-05-06T10:28:20;100732.34;;;10.56;33.00
68456;BME280;55437;55.046;38.838;2023-05-06T10:30:48;100722.63;;;10.73;32.80
68456;BME280;55437;55.046;38.838;2023-05-06T10:33:15;100716.44;;;10.82;32.53
68456;BME280;55437;55.046;38.838;2023-05-06T10:38:34;100722.63;;;10.72;32.08
68456;BME280;55437;55.046;38.838;2023-05-06T10:41:02;100721.88;;;10.65;32.15
68456;BME280;55437;55.046;38.838;2023-05-06T10:43:33;100728.41;;;10.85;32.17
68456;BME280;55437;55.046;38.838;2023-05-06T10:46:16;100738.78;;;10.78;31.89
68456;BME280;55437;55.046;38.838;2023-05-06T10:51:40;100730.84;;;10.91;31.50
68456;BME280;55437;55.046;38.838;2023-05-06T10:54:25;100732.72;;;11.26;31.66
68456;BME280;55437;55.046;38.838;2023-05-06T10:59:20;100741.28;;;11.26;32.07
68456;BME280;55437;55.046;38.838;2023-05-06T11:02:06;100744.03;;;11.17;32.33
68456;BME280;55437;55.046;38.838;2023-05-06T11:04:33;100735.69;;;11.06;31.34
68456;BME280;55437;55.046;38.838;2023-05-06T11:07:20;100728.88;;;11.03;31.38
68456;BME280;55437;55.046;38.838;2023-05-06T11:12:21;100730.13;;;11.26;31.53
68456;BME280;55437;55.046;38.838;2023-05-06T11:14:48;100732.34;;;11.44;31.26
68456;BME280;55437;55.046;38.838;2023-05-06T11:17:31;100734.28;;;11.34;31.43
68456;BME280;55437;55.046;38.838;2023-05-06T11:22:46;100741.94;;;10.93;31.45
68456;BME280;55437;55.046;38.838;2023-05-06T11:25:12;100727.06;;;11.08;31.23
68456;BME280;55437;55.046;38.838;2023-05-06T11:27:38;100732.97;;;11.12;30.78
68456;BME280;55437;55.046;38.838;2023-05-06T11:30:04;100735.28;;;10.82;31.51
68456;BME280;55437;55.046;38.838;2023-05-06T11:32:32;100735.53;;;10.69;31.96
68456;BME280;55437;55.046;38.838;2023-05-06T11:34:59;100751.19;;;10.54;31.79
68456;BME280;55437;55.046;38.838;2023-05-06T11:37:26;100747.16;;;10.39;32.15
68456;BME280;55437;55.046;38.838;2023-05-06T11:39:53;100736.00;;;10.41;31.71
68456;BME280;55437;55.046;38.838;2023-05-06T11:42:27;100727.09;;;10.62;31.76
68456;BME280;55437;55.046;38.838;2023-05-06T11:44:54;100729.25;;;10.85;31.64
68456;BME280;55437;55.046;38.838;2023-05-06T11:47:22;100720.69;;;10.85;30.76
68456;BME280;55437;55.046;38.838;2023-05-06T11:49:53;100720.91;;;11.17;30.17
68456;BME280;55437;55.046;38.838;2023-05-06T11:52:20;100720.56;;;11.34;30.36
68456;BME280;55437;55.046;38.838;2023-05-06T11:54:45;100718.75;;;11.37;30.43
68456;BME280;55437;55.046;38.838;2023-05-06T11:57:11;100726.84;;;11.21;30.09
68456;BME280;55437;55.046;38.838;2023-05-06T11:59:39;100728.00;;;11.04;30.28
68456;BME280;55437;55.046;38.838;2023-05-06T12:02:12;100727.81;;;10.70;30.12
68456;BME280;55437;55.046;38.838;2023-05-06T12:04:46;100726.97;;;10.68;29.87
68456;BME280;55437;55.046;38.838;2023-05-06T12:07:13;100725.00;;;10.82;30.09
68456;BME280;55437;55.046;38.838;2023-05-06T12:09:45;100721.44;;;10.90;29.70
68456;BME280;55437;55.046;38.838;2023-05-06T12:12:36;100723.84;;;10.99;29.50
68456;BME280;55437;55.046;38.838;2023-05-06T12:15:03;100723.72;;;11.05;29.59
68456;BME280;55437;55.046;38.838;2023-05-06T12:17:31;100723.00;;;10.98;29.75
68456;BME280;55437;55.046;38.838;2023-05-06T12:19:56;100723.13;;;10.91;29.80
68456;BME280;55437;55.046;38.838;2023-05-06T12:25:26;100722.72;;;10.66;28.92
68456;BME280;55437;55.046;38.838;2023-05-06T12:27:52;100729.56;;;10.67;28.90
68456;BME280;55437;55.046;38.838;2023-05-06T12:30:28;100721.84;;;10.68;28.62
68456;BME280;55437;55.046;38.838;2023-05-06T12:32:55;100721.91;;;10.64;28.59
68456;BME280;55437;55.046;38.838;2023-05-06T12:35:30;100730.38;;;10.70;28.81
68456;BME280;55437;55.046;38.838;2023-05-06T12:38:07;100722.72;;;10.66;28.48
68456;BME280;55437;55.046;38.838;2023-05-06T12:40:34;100719.34;;;10.64;28.33
68456;BME280;55437;55.046;38.838;2023-05-06T12:43:00;100717.31;;;10.81;28.08
68456;BME280;55437;55.046;38.838;2023-05-06T12:46:00;100719.63;;;10.95;27.96
68456;BME280;55437;55.046;38.838;2023-05-06T12:48:27;100719.41;;;11.07;28.29
68456;BME280;55437;55.046;38.838;2023-05-06T12:51:18;100714.91;;;11.16;27.99
68456;BME280;55437;55.046;38.838;2023-05-06T12:53:44;100717.19;;;11.30;28.09
68456;BME280;55437;55.046;38.838;2023-05-06T12:56:28;100709.25;;;11.41;28.37
68456;BME280;55437;55.046;38.838;2023-05-06T12:59:01;100706.38;;;11.54;28.28
68456;BME280;55437;55.046;38.838;2023-05-06T13:01:47;100719.16;;;11.59;27.53
68456;BME280;55437;55.046;38.838;2023-05-06T13:04:13;100728.19;;;11.37;27.70
68456;BME280;55437;55.046;38.838;2023-05-06T13:06:39;100725.97;;;11.20;28.23
68456;BME280;55437;55.046;38.838;2023-05-06T13:09:05;100722.44;;;10.82;28.37
68456;BME280;55437;55.046;38.838;2023-05-06T13:11:31;100726.38;;;10.54;28.85
68456;BME280;55437;55.046;38.838;2023-05-06T13:13:57;100721.81;;;10.18;29.58
68456;BME280;55437;55.046;38.838;2023-05-06T13:16:42;100725.34;;;10.14;29.79
68456;BME280;55437;55.046;38.838;2023-05-06T13:19:10;100731.56;;;9.97;30.43
68456;BME280;55437;55.046;38.838;2023-05-06T13:21:37;100720.66;;;9.83;31.01
68456;BME280;55437;55.046;38.838;2023-05-06T13:24:03;100723.25;;;9.82;30.78